Time;durP1;ratioP1;P1;durP2;ratioP2;P2;SDS_P1;SDS_P2;PMS_P1;PMS_P2;Temp;Humidity;BMP_temperature;BMP_pressure;BME280_temperature;BME280_humidity;BME280_pressure;Samples;Min_cycle;Max_cycle;Signal;HPM_P1;HPM_P2
2022/10/08 00:00:44;;;;;;;2.30;0.90;;;;;;;;;;5016757;28;20065;-62
2022/10/08 00:03:09;;;;;;;2.28;0.93;;;;;;;;;;5013973;28;20482;-62
2022/10/08 00:05:35;;;;;;;1.65;0.90;;;;;;;;;;5014589;28;20057;-62
2022/10/08 00:08:01;;;;;;;1.77;0.88;;;;;;;;;;5017742;28;20096;-62
2022/10/08 00:10:26;;;;;;;2.30;0.77;;;;;;;;;;5015595;28;20460;-61
2022/10/08 00:12:51;;;;;;;1.63;0.82;;;;;;;;;;5015363;28;20045;-62
2022/10/08 00:15:17;;;;;;;2.53;1.00;;;;;;;;;;5011200;28;20500;-62
2022/10/08 00:17:42;;;;;;;1.70;0.70;;;;;;;;;;5008973;28;20097;-64
2022/10/08 00:20:08;;;;;;;3.25;0.90;;;;;;;;;;5013197;28;20038;-62
2022/10/08 00:22:34;;;;;;;1.48;0.80;;;;;;;;;;5014014;28;20477;-61
2022/10/08 00:24:59;;;;;;;1.45;0.60;;;;;;;;;;5015390;28;20045;-62
2022/10/08 00:27:25;;;;;;;1.95;0.95;;;;;;;;;;5013302;28;20045;-62
2022/10/08 00:29:51;;;;;;;1.25;0.65;;;;;;;;;;5014715;28;20113;-62
2022/10/08 00:32:20;;;;;;;1.45;0.70;;;;;;;;;;5015255;28;20414;-62
2022/10/08 00:34:46;;;;;;;1.50;0.80;;;;;;;;;;5014237;28;20069;-62
2022/10/08 00:37:14;;;;;;;1.70;0.90;;;;;;;;;;5015188;28;20061;-62
2022/10/08 00:39:40;;;;;;;1.90;0.80;;;;;;;;;;5012539;28;20038;-61
2022/10/08 00:42:06;;;;;;;1.52;0.90;;;;;;;;;;5014153;28;20040;-62
2022/10/08 00:45:00;;;;;;;1.45;0.70;;;;;;;;;;5015102;28;20393;-62
2022/10/08 00:47:32;;;;;;;1.88;0.80;;;;;;;;;;5008908;28;20375;-62
2022/10/08 00:50:17;;;;;;;1.42;0.70;;;;;;;;;;5015024;28;20045;-62
2022/10/08 00:52:46;;;;;;;2.10;0.90;;;;;;;;;;5013663;28;20517;-62
2022/10/08 00:55:13;;;;;;;1.58;0.80;;;;;;;;;;5012207;28;20508;-62
2022/10/08 00:57:40;;;;;;;1.60;0.75;;;;;;;;;;5013568;28;20045;-62
2022/10/08 01:00:11;;;;;;;1.75;1.00;;;;;;;;;;5013681;28;20052;-62
2022/10/08 01:02:37;;;;;;;3.97;0.80;;;;;;;;;;4989754;28;20022;-61
2022/10/08 01:05:04;;;;;;;2.05;0.80;;;;;;;;;;5015132;28;20482;-62
2022/10/08 01:07:50;;;;;;;1.13;0.70;;;;;;;;;;5006134;28;20038;-62
2022/10/08 01:10:43;;;;;;;1.02;0.70;;;;;;;;;;4998438;28;20401;-62
2022/10/08 01:13:50;;;;;;;1.33;0.60;;;;;;;;;;5015127;28;20052;-63
2022/10/08 01:16:16;;;;;;;1.65;0.77;;;;;;;;;;5011289;28;20501;-62
2022/10/08 01:18:51;;;;;;;1.58;0.80;;;;;;;;;;5015577;28;20037;-62
2022/10/08 01:21:40;;;;;;;1.25;0.70;;;;;;;;;;5028681;28;20045;-62
2022/10/08 01:24:05;;;;;;;0.98;0.60;;;;;;;;;;5013472;28;20084;-61
2022/10/08 01:27:00;;;;;;;1.20;0.63;;;;;;;;;;5012827;28;20429;-63
2022/10/08 01:29:36;;;;;;;1.42;0.60;;;;;;;;;;5014348;28;20030;-61
2022/10/08 01:32:19;;;;;;;1.55;0.90;;;;;;;;;;5017070;28;20034;-62
2022/10/08 01:35:01;;;;;;;1.45;0.68;;;;;;;;;;5017454;28;20053;-63
2022/10/08 01:37:33;;;;;;;1.17;0.70;;;;;;;;;;5018089;28;20046;-62
2022/10/08 01:40:02;;;;;;;1.50;0.70;;;;;;;;;;5010573;28;20452;-61
2022/10/08 01:42:28;;;;;;;1.35;0.75;;;;;;;;;;5014055;28;20034;-62
2022/10/08 01:44:57;;;;;;;1.38;0.60;;;;;;;;;;5014498;28;20041;-62
2022/10/08 01:47:25;;;;;;;2.08;0.70;;;;;;;;;;4999349;28;20552;-62
2022/10/08 01:49:58;;;;;;;1.23;0.70;;;;;;;;;;5004167;28;20045;-62
2022/10/08 01:52:26;;;;;;;1.83;0.75;;;;;;;;;;5011968;28;20049;-63
2022/10/08 01:54:54;;;;;;;1.95;0.50;;;;;;;;;;5024717;28;20396;-61
2022/10/08 01:57:22;;;;;;;1.27;0.75;;;;;;;;;;5008317;28;20035;-62
2022/10/08 01:59:51;;;;;;;1.65;0.70;;;;;;;;;;5026114;28;20501;-62
2022/10/08 02:02:19;;;;;;;1.23;0.68;;;;;;;;;;5019581;28;20037;-62
2022/10/08 02:04:45;;;;;;;1.23;0.73;;;;;;;;;;5022685;28;20128;-62
2022/10/08 02:07:17;;;;;;;1.25;0.63;;;;;;;;;;5017551;28;20458;-62
2022/10/08 02:09:45;;;;;;;1.05;0.68;;;;;;;;;;5020952;28;20080;-61
2022/10/08 02:12:13;;;;;;;1.33;0.70;;;;;;;;;;5014608;28;20120;-63
2022/10/08 02:14:48;;;;;;;1.65;0.90;;;;;;;;;;5019437;28;20034;-62
2022/10/08 02:17:23;;;;;;;0.82;0.52;;;;;;;;;;5007733;28;20045;-62
2022/10/08 02:19:54;;;;;;;1.48;0.70;;;;;;;;;;5020417;28;20047;-61
2022/10/08 02:22:23;;;;;;;0.98;0.60;;;;;;;;;;5002453;28;20585;-62
2022/10/08 02:24:56;;;;;;;1.17;0.70;;;;;;;;;;5023244;28;20474;-62
2022/10/08 02:27:28;;;;;;;1.00;0.70;;;;;;;;;;5017454;28;20053;-62
2022/10/08 02:30:02;;;;;;;1.27;0.75;;;;;;;;;;5025469;28;20042;-63
2022/10/08 02:32:52;;;;;;;1.50;0.70;;;;;;;;;;5017453;28;20056;-61
2022/10/08 02:35:31;;;;;;;1.08;0.60;;;;;;;;;;5040003;28;20477;-62
2022/10/08 02:38:07;;;;;;;0.75;0.60;;;;;;;;;;5021909;28;20043;-62
2022/10/08 02:40:33;;;;;;;1.10;0.68;;;;;;;;;;5022593;28;20042;-62
2022/10/08 02:43:04;;;;;;;0.75;0.60;;;;;;;;;;5015765;28;20057;-62
2022/10/08 02:45:34;;;;;;;0.82;0.60;;;;;;;;;;5031418;28;20070;-62
2022/10/08 02:48:05;;;;;;;1.27;0.60;;;;;;;;;;4997087;28;20072;-62
2022/10/08 02:50:32;;;;;;;1.05;0.60;;;;;;;;;;5023521;28;20499;-62
2022/10/08 02:52:57;;;;;;;1.23;0.70;;;;;;;;;;5020346;28;20034;-62
2022/10/08 02:55:35;;;;;;;1.38;0.70;;;;;;;;;;5006150;28;20549;-62
2022/10/08 02:58:05;;;;;;;0.88;0.57;;;;;;;;;;5003624;28;20062;-62
2022/10/08 03:00:36;;;;;;;1.83;0.70;;;;;;;;;;5004246;28;20064;-62
2022/10/08 03:03:10;;;;;;;1.15;0.60;;;;;;;;;;5010555;28;20045;-62
2022/10/08 03:05:37;;;;;;;1.17;0.60;;;;;;;;;;5013686;28;20490;-62
2022/10/08 03:08:04;;;;;;;1.88;0.73;;;;;;;;;;5015836;28;20026;-62
2022/10/08 03:10:31;;;;;;;1.00;0.60;;;;;;;;;;5015857;28;20037;-62
2022/10/08 03:13:00;;;;;;;1.05;0.60;;;;;;;;;;5008970;28;20060;-63
2022/10/08 03:15:26;;;;;;;1.73;0.80;;;;;;;;;;5030583;28;20046;-61
2022/10/08 03:17:52;;;;;;;1.20;0.70;;;;;;;;;;5005980;28;20375;-63
2022/10/08 03:20:18;;;;;;;1.13;0.68;;;;;;;;;;5022998;28;20110;-62
2022/10/08 03:22:43;;;;;;;0.77;0.50;;;;;;;;;;5014398;28;20131;-62
2022/10/08 03:25:09;;;;;;;1.05;0.65;;;;;;;;;;5019588;28;20105;-62
2022/10/08 03:27:34;;;;;;;2.10;0.90;;;;;;;;;;5019240;28;20033;-62
2022/10/08 03:30:00;;;;;;;1.10;0.68;;;;;;;;;;5014094;28;20053;-62
2022/10/08 03:32:25;;;;;;;0.93;0.52;;;;;;;;;;5006588;28;20030;-61
2022/10/08 03:34:51;;;;;;;1.60;0.55;;;;;;;;;;5012779;28;20065;-62
2022/10/08 03:37:17;;;;;;;0.75;0.50;;;;;;;;;;5017356;28;20041;-62
2022/10/08 03:39:43;;;;;;;1.17;0.55;;;;;;;;;;5019820;28;20092;-61
2022/10/08 03:42:08;;;;;;;0.57;0.43;;;;;;;;;;5009539;28;20061;-61
2022/10/08 03:44:34;;;;;;;0.88;0.50;;;;;;;;;;5018473;28;20045;-61
2022/10/08 03:46:59;;;;;;;1.40;0.60;;;;;;;;;;5016054;28;20447;-62
2022/10/08 03:49:25;;;;;;;1.10;0.50;;;;;;;;;;5016301;28;20037;-62
2022/10/08 03:51:50;;;;;;;1.30;0.63;;;;;;;;;;5014963;28;20038;-63
2022/10/08 03:54:15;;;;;;;1.08;0.57;;;;;;;;;;5014968;28;20029;-62
2022/10/08 03:56:41;;;;;;;1.38;0.55;;;;;;;;;;5014645;28;20459;-62
2022/10/08 03:59:06;;;;;;;1.20;0.60;;;;;;;;;;5023591;28;20187;-62
2022/10/08 04:01:31;;;;;;;0.57;0.45;;;;;;;;;;5010574;28;20038;-62
2022/10/08 04:03:57;;;;;;;0.75;0.50;;;;;;;;;;5015987;28;20065;-63
2022/10/08 04:06:23;;;;;;;1.75;0.50;;;;;;;;;;5012333;28;20489;-62
2022/10/08 04:08:48;;;;;;;1.00;0.60;;;;;;;;;;5014708;28;20112;-62
2022/10/08 04:11:15;;;;;;;0.82;0.50;;;;;;;;;;5004823;28;20041;-62
2022/10/08 04:13:41;;;;;;;1.45;0.70;;;;;;;;;;5015304;28;20042;-63
2022/10/08 04:16:12;;;;;;;1.15;0.50;;;;;;;;;;5006453;28;20490;-62
2022/10/08 04:18:37;;;;;;;1.05;0.57;;;;;;;;;;5014565;28;20456;-61
2022/10/08 04:21:05;;;;;;;0.68;0.50;;;;;;;;;;5014454;28;20069;-62
2022/10/08 04:23:33;;;;;;;1.23;0.70;;;;;;;;;;5008928;28;20038;-62
2022/10/08 04:25:58;;;;;;;1.08;0.60;;;;;;;;;;5022197;28;20049;-63
2022/10/08 04:28:24;;;;;;;1.13;0.60;;;;;;;;;;5007452;28;20029;-62
2022/10/08 04:31:00;;;;;;;0.68;0.55;;;;;;;;;;4999894;28;20097;-62
2022/10/08 04:33:26;;;;;;;1.00;0.60;;;;;;;;;;5003476;28;20042;-62
2022/10/08 04:35:53;;;;;;;1.02;0.60;;;;;;;;;;5012974;28;20077;-62
2022/10/08 04:38:18;;;;;;;4.07;0.60;;;;;;;;;;5018942;28;20030;-62
2022/10/08 04:40:43;;;;;;;0.80;0.50;;;;;;;;;;5014747;28;20371;-63
2022/10/08 04:43:09;;;;;;;1.10;0.50;;;;;;;;;;5007636;28;20096;-62
2022/10/08 04:45:43;;;;;;;0.52;0.40;;;;;;;;;;5010083;28;20069;-62
2022/10/08 04:48:09;;;;;;;1.30;0.65;;;;;;;;;;5026415;28;20057;-62
2022/10/08 04:50:34;;;;;;;0.75;0.50;;;;;;;;;;5013991;28;20074;-62
2022/10/08 04:52:59;;;;;;;0.75;0.50;;;;;;;;;;5014168;28;20484;-62
2022/10/08 04:55:25;;;;;;;1.10;0.55;;;;;;;;;;5014787;28;20034;-62
2022/10/08 04:57:50;;;;;;;1.52;0.75;;;;;;;;;;5011562;28;20490;-62
2022/10/08 05:00:15;;;;;;;0.77;0.60;;;;;;;;;;5014051;28;20040;-62
2022/10/08 05:02:41;;;;;;;1.00;0.50;;;;;;;;;;5011171;28;20084;-62
2022/10/08 05:05:07;;;;;;;0.85;0.60;;;;;;;;;;5011723;28;20100;-62
2022/10/08 05:07:32;;;;;;;0.93;0.52;;;;;;;;;;5007455;28;20630;-62
2022/10/08 05:09:57;;;;;;;0.82;0.50;;;;;;;;;;5014672;28;20044;-64
2022/10/08 05:12:23;;;;;;;1.13;0.60;;;;;;;;;;5014812;28;20080;-62
2022/10/08 05:14:48;;;;;;;0.77;0.57;;;;;;;;;;5006830;28;20116;-62
2022/10/08 05:17:14;;;;;;;0.80;0.50;;;;;;;;;;4998144;28;20053;-62
2022/10/08 05:19:39;;;;;;;0.90;0.50;;;;;;;;;;5010446;28;20042;-62
2022/10/08 05:22:04;;;;;;;0.93;0.50;;;;;;;;;;5006963;28;20058;-62
2022/10/08 05:24:30;;;;;;;0.60;0.40;;;;;;;;;;5012218;28;20030;-62
2022/10/08 05:26:55;;;;;;;0.73;0.60;;;;;;;;;;5012738;28;20033;-62
2022/10/08 05:29:20;;;;;;;0.93;0.60;;;;;;;;;;5014429;28;20030;-62
2022/10/08 05:31:46;;;;;;;0.73;0.50;;;;;;;;;;5013502;28;20104;-62
2022/10/08 05:34:12;;;;;;;0.70;0.50;;;;;;;;;;5014228;28;20406;-62
2022/10/08 05:36:38;;;;;;;0.88;0.50;;;;;;;;;;5013214;28;20377;-62
2022/10/08 05:39:04;;;;;;;0.82;0.50;;;;;;;;;;5011354;28;20038;-62
2022/10/08 05:41:35;;;;;;;0.93;0.50;;;;;;;;;;5009107;28;20053;-63
2022/10/08 05:44:01;;;;;;;0.45;0.40;;;;;;;;;;5010763;28;20466;-63
2022/10/08 05:46:27;;;;;;;1.00;0.50;;;;;;;;;;5013345;28;20049;-62
2022/10/08 05:48:57;;;;;;;0.90;0.60;;;;;;;;;;5002672;28;20045;-62
2022/10/08 05:51:23;;;;;;;0.50;0.40;;;;;;;;;;5008662;28;20038;-62
2022/10/08 05:53:50;;;;;;;0.60;0.40;;;;;;;;;;5012783;28;20044;-62
2022/10/08 05:56:19;;;;;;;0.60;0.50;;;;;;;;;;5011695;28;20041;-62
2022/10/08 05:58:45;;;;;;;0.65;0.50;;;;;;;;;;5020140;28;20037;-60
2022/10/08 06:01:15;;;;;;;0.60;0.40;;;;;;;;;;5023160;28;20477;-63
2022/10/08 06:03:41;;;;;;;0.93;0.50;;;;;;;;;;5012886;28;20410;-71
2022/10/08 06:06:08;;;;;;;0.77;0.52;;;;;;;;;;5013444;28;20056;-61
2022/10/08 06:08:34;;;;;;;0.82;0.50;;;;;;;;;;5017229;28;20033;-61
2022/10/08 06:11:01;;;;;;;1.27;0.52;;;;;;;;;;5023768;28;20046;-62
2022/10/08 06:13:26;;;;;;;4.43;0.73;;;;;;;;;;5012370;28;20022;-61
2022/10/08 06:15:55;;;;;;;0.60;0.40;;;;;;;;;;5016830;28;20450;-61
2022/10/08 06:18:22;;;;;;;0.75;0.45;;;;;;;;;;5016328;28;20544;-62
2022/10/08 06:20:47;;;;;;;0.63;0.50;;;;;;;;;;5016949;28;20038;-62
2022/10/08 06:23:12;;;;;;;1.08;0.57;;;;;;;;;;5016749;28;20034;-61
2022/10/08 06:25:38;;;;;;;0.80;0.45;;;;;;;;;;5016453;28;20050;-62
2022/10/08 06:28:03;;;;;;;1.27;0.60;;;;;;;;;;5016884;28;20033;-61
2022/10/08 06:30:29;;;;;;;0.47;0.40;;;;;;;;;;5016585;28;20038;-62
2022/10/08 06:32:54;;;;;;;0.88;0.50;;;;;;;;;;5016650;28;20490;-62
2022/10/08 06:35:19;;;;;;;1.25;0.55;;;;;;;;;;5001029;28;20573;-61
2022/10/08 06:37:48;;;;;;;0.73;0.50;;;;;;;;;;5013362;28;20041;-62
2022/10/08 06:40:14;;;;;;;4.15;0.80;;;;;;;;;;5013446;28;20088;-64
2022/10/08 06:42:39;;;;;;;2.78;0.50;;;;;;;;;;5016329;28;20045;-68
2022/10/08 06:45:05;;;;;;;0.85;0.50;;;;;;;;;;5009463;28;20034;-64
2022/10/08 06:47:30;;;;;;;0.55;0.40;;;;;;;;;;5015393;28;20052;-68
2022/10/08 06:49:56;;;;;;;1.77;0.60;;;;;;;;;;5012538;28;20382;-64
2022/10/08 06:52:21;;;;;;;0.52;0.32;;;;;;;;;;5004185;28;20470;-66
2022/10/08 06:54:47;;;;;;;2.35;0.68;;;;;;;;;;5007316;28;20038;-65
2022/10/08 06:57:12;;;;;;;2.95;0.63;;;;;;;;;;5005705;28;20037;-68
2022/10/08 06:59:38;;;;;;;3.00;0.60;;;;;;;;;;5014174;28;20049;-67
2022/10/08 07:02:03;;;;;;;1.27;0.50;;;;;;;;;;5014203;28;20061;-64
2022/10/08 07:04:28;;;;;;;5.57;0.60;;;;;;;;;;5018345;28;20038;-67
2022/10/08 07:06:54;;;;;;;1.45;0.70;;;;;;;;;;5014640;28;20037;-65
2022/10/08 07:09:19;;;;;;;0.85;0.50;;;;;;;;;;4999619;28;20179;-66
2022/10/08 07:11:44;;;;;;;1.55;0.68;;;;;;;;;;5007613;28;20124;-64
2022/10/08 07:14:10;;;;;;;1.75;0.60;;;;;;;;;;4994383;28;20045;-60
2022/10/08 07:16:35;;;;;;;3.33;0.70;;;;;;;;;;5006599;28;20038;-59
2022/10/08 07:19:01;;;;;;;1.35;0.55;;;;;;;;;;5013027;28;20458;-60
2022/10/08 07:21:27;;;;;;;1.35;0.60;;;;;;;;;;5008581;28;20120;-60
2022/10/08 07:23:52;;;;;;;3.92;0.60;;;;;;;;;;5011039;28;20034;-60
2022/10/08 07:26:23;;;;;;;0.82;0.55;;;;;;;;;;4998989;28;20030;-63
2022/10/08 07:28:57;;;;;;;7.50;0.70;;;;;;;;;;5011333;28;20508;-59
2022/10/08 07:31:26;;;;;;;2.75;0.68;;;;;;;;;;5010504;28;20076;-72
2022/10/08 07:33:52;;;;;;;1.15;0.57;;;;;;;;;;5005890;28;20038;-58
2022/10/08 07:36:20;;;;;;;4.72;1.10;;;;;;;;;;5005769;28;20536;-60
2022/10/08 07:38:46;;;;;;;3.60;0.80;;;;;;;;;;5001378;28;20405;-61
2022/10/08 07:41:13;;;;;;;2.03;0.80;;;;;;;;;;5017395;28;20030;-61
2022/10/08 07:43:42;;;;;;;4.07;0.70;;;;;;;;;;5017608;28;20145;-60
2022/10/08 07:46:09;;;;;;;5.85;0.90;;;;;;;;;;5014328;28;20042;-68
2022/10/08 07:48:35;;;;;;;1.73;0.73;;;;;;;;;;5011586;28;20042;-59
2022/10/08 07:51:15;;;;;;;2.72;1.00;;;;;;;;;;5011791;28;20069;-61
2022/10/08 07:53:41;;;;;;;1.98;1.30;;;;;;;;;;5020459;28;20123;-59
2022/10/08 07:56:09;;;;;;;1.95;1.00;;;;;;;;;;4986367;28;21056;-60
2022/10/08 07:58:35;;;;;;;5.10;1.00;;;;;;;;;;5017560;28;20083;-58
2022/10/08 08:01:02;;;;;;;4.65;1.17;;;;;;;;;;5006173;28;20030;-63
2022/10/08 08:03:28;;;;;;;2.25;1.20;;;;;;;;;;5016985;28;20554;-61
2022/10/08 08:05:53;;;;;;;2.53;1.00;;;;;;;;;;5013623;28;20148;-66
2022/10/08 08:08:23;;;;;;;13.48;1.42;;;;;;;;;;5025857;28;20048;-65
2022/10/08 08:10:49;;;;;;;3.58;1.00;;;;;;;;;;5012950;28;20037;-65
2022/10/08 08:13:14;;;;;;;16.35;1.48;;;;;;;;;;4996796;28;20389;-67
2022/10/08 08:15:40;;;;;;;4.85;1.00;;;;;;;;;;5013262;28;20553;-67
2022/10/08 08:18:05;;;;;;;11.30;1.23;;;;;;;;;;5014508;28;20034;-72
2022/10/08 08:20:30;;;;;;;7.65;1.15;;;;;;;;;;5010997;28;20049;-64
2022/10/08 08:22:56;;;;;;;3.45;1.10;;;;;;;;;;5002126;28;20033;-64
2022/10/08 08:25:22;;;;;;;11.23;1.15;;;;;;;;;;5020245;28;20064;-64
2022/10/08 08:27:47;;;;;;;6.80;0.95;;;;;;;;;;5016349;28;20041;-68
2022/10/08 08:30:13;;;;;;;4.65;1.20;;;;;;;;;;5018849;28;20080;-69
2022/10/08 08:32:39;;;;;;;2.50;0.95;;;;;;;;;;5013702;28;20117;-69
2022/10/08 08:35:05;;;;;;;2.88;1.20;;;;;;;;;;5013409;28;20032;-68
2022/10/08 08:37:30;;;;;;;4.35;0.82;;;;;;;;;;5012749;28;20393;-69
2022/10/08 08:39:55;;;;;;;2.90;0.80;;;;;;;;;;5013974;28;20409;-69
2022/10/08 08:42:27;;;;;;;6.57;1.40;;;;;;;;;;5014211;28;20068;-69
2022/10/08 08:45:00;;;;;;;2.63;1.00;;;;;;;;;;5014249;28;20053;-69
2022/10/08 08:47:35;;;;;;;4.93;0.70;;;;;;;;;;5013068;28;20038;-70
2022/10/08 08:50:13;;;;;;;3.97;1.13;;;;;;;;;;5008203;28;20038;-69
2022/10/08 08:52:40;;;;;;;3.65;0.90;;;;;;;;;;5012476;28;20482;-70
2022/10/08 08:55:14;;;;;;;3.60;0.93;;;;;;;;;;5012795;28;20042;-69
2022/10/08 08:57:48;;;;;;;2.50;0.80;;;;;;;;;;5014100;28;20038;-70
2022/10/08 09:00:22;;;;;;;3.47;0.80;;;;;;;;;;5013991;28;20072;-70
2022/10/08 09:03:01;;;;;;;2.17;0.60;;;;;;;;;;5002418;28;20041;-70
2022/10/08 09:05:30;;;;;;;1.90;0.85;;;;;;;;;;5012554;28;20050;-70
2022/10/08 09:08:04;;;;;;;3.28;0.70;;;;;;;;;;5012406;28;20034;-69
2022/10/08 09:10:42;;;;;;;2.60;0.95;;;;;;;;;;5003415;28;20117;-70
2022/10/08 09:13:14;;;;;;;3.97;0.85;;;;;;;;;;4997388;28;20121;-69
2022/10/08 09:15:41;;;;;;;3.47;0.73;;;;;;;;;;5024425;28;20042;-70
2022/10/08 09:18:11;;;;;;;2.70;0.95;;;;;;;;;;5012681;28;20117;-69
2022/10/08 09:20:38;;;;;;;3.67;1.00;;;;;;;;;;5013698;28;20109;-70
2022/10/08 09:23:08;;;;;;;3.53;1.00;;;;;;;;;;5012529;28;20100;-69
2022/10/08 09:25:34;;;;;;;3.13;0.80;;;;;;;;;;5012361;28;20049;-71
2022/10/08 09:28:02;;;;;;;1.80;0.85;;;;;;;;;;5004636;28;20489;-70
2022/10/08 09:30:43;;;;;;;3.10;1.00;;;;;;;;;;5011844;28;20401;-68
2022/10/08 09:33:11;;;;;;;2.20;1.00;;;;;;;;;;5008466;28;20041;-67
2022/10/08 09:35:52;;;;;;;2.63;1.05;;;;;;;;;;5012741;28;20136;-68
2022/10/08 09:38:24;;;;;;;3.58;1.02;;;;;;;;;;5006764;28;20060;-66
2022/10/08 09:41:05;;;;;;;1.60;0.88;;;;;;;;;;5015601;28;20482;-65
2022/10/08 09:43:32;;;;;;;2.70;1.10;;;;;;;;;;5004816;28;20122;-64
2022/10/08 09:46:03;;;;;;;3.58;1.10;;;;;;;;;;5024085;28;20053;-64
2022/10/08 09:48:29;;;;;;;1.90;1.10;;;;;;;;;;5001463;28;20038;-69
2022/10/08 09:51:01;;;;;;;3.00;1.08;;;;;;;;;;5013238;28;20034;-66
2022/10/08 09:53:34;;;;;;;3.60;1.20;;;;;;;;;;5016077;28;20034;-74
2022/10/08 09:56:01;;;;;;;2.20;0.90;;;;;;;;;;5016543;28;20042;-66
2022/10/08 09:58:30;;;;;;;1.63;0.90;;;;;;;;;;5015034;28;20030;-68
2022/10/08 10:00:58;;;;;;;1.63;1.00;;;;;;;;;;5014985;28;20048;-67
2022/10/08 10:03:24;;;;;;;2.53;1.00;;;;;;;;;;5023349;28;20033;-66
2022/10/08 10:05:51;;;;;;;3.80;1.10;;;;;;;;;;5017287;28;20058;-68
2022/10/08 10:08:52;;;;;;;3.50;0.88;;;;;;;;;;5013049;28;20038;-67
2022/10/08 10:11:50;;;;;;;2.83;1.00;;;;;;;;;;4988740;28;20084;-67
2022/10/08 10:14:22;;;;;;;2.15;0.90;;;;;;;;;;5012631;28;20121;-68
2022/10/08 10:16:52;;;;;;;2.25;1.10;;;;;;;;;;5012363;28;20037;-67
2022/10/08 10:19:21;;;;;;;3.75;1.00;;;;;;;;;;4998849;28;20385;-67
2022/10/08 10:22:20;;;;;;;5.00;1.17;;;;;;;;;;5012944;28;20050;-68
2022/10/08 10:25:01;;;;;;;4.90;1.50;;;;;;;;;;5007439;28;20085;-67
2022/10/08 10:27:31;;;;;;;1.73;0.80;;;;;;;;;;5014107;28;20048;-68
2022/10/08 10:30:02;;;;;;;2.15;0.80;;;;;;;;;;5014589;28;20065;-70
2022/10/08 10:32:33;;;;;;;2.83;1.10;;;;;;;;;;5014258;28;20122;-67
2022/10/08 10:35:08;;;;;;;5.10;0.95;;;;;;;;;;5010642;28;20092;-67
2022/10/08 10:37:38;;;;;;;2.05;1.00;;;;;;;;;;5004071;28;20125;-67
2022/10/08 10:40:21;;;;;;;3.78;1.30;;;;;;;;;;5013413;28;20367;-68
2022/10/08 10:43:11;;;;;;;2.07;0.97;;;;;;;;;;5014351;28;20045;-67
2022/10/08 10:45:38;;;;;;;2.20;0.90;;;;;;;;;;5013043;28;20797;-67
2022/10/08 10:48:06;;;;;;;2.13;0.85;;;;;;;;;;5014363;28;20062;-69
2022/10/08 10:51:13;;;;;;;2.90;1.17;;;;;;;;;;5014174;28;20041;-68
2022/10/08 10:54:07;;;;;;;2.13;0.80;;;;;;;;;;5005318;28;20046;-67
2022/10/08 10:56:37;;;;;;;2.58;0.75;;;;;;;;;;5008032;28;20041;-68
2022/10/08 10:59:33;;;;;;;7.40;0.80;;;;;;;;;;5015008;28;20507;-67
2022/10/08 11:02:23;;;;;;;2.58;0.90;;;;;;;;;;5004463;28;20473;-67
2022/10/08 11:04:56;;;;;;;3.17;0.80;;;;;;;;;;5012807;28;20042;-67
2022/10/08 11:07:49;;;;;;;1.85;0.85;;;;;;;;;;5014882;28;20038;-67
2022/10/08 11:10:37;;;;;;;3.35;1.00;;;;;;;;;;5002620;28;20140;-67
2022/10/08 11:13:34;;;;;;;2.60;1.00;;;;;;;;;;5014749;28;20025;-67
2022/10/08 11:16:24;;;;;;;2.05;0.80;;;;;;;;;;5007214;28;20595;-67
2022/10/08 11:18:55;;;;;;;2.25;0.90;;;;;;;;;;5007693;28;20038;-68
2022/10/08 11:21:23;;;;;;;2.80;1.05;;;;;;;;;;5025024;28;20445;-67
2022/10/08 11:24:22;;;;;;;2.30;0.82;;;;;;;;;;5014752;28;20481;-67
2022/10/08 11:26:56;;;;;;;2.20;0.85;;;;;;;;;;5013870;28;20044;-66
2022/10/08 11:29:34;;;;;;;;;;;;;;;;;;5023317;28;20040;-66
2022/10/08 11:31:59;;;;;;;5.07;0.90;;;;;;;;;;5000459;28;19913;-66
2022/10/08 11:34:32;;;;;;;2.47;1.00;;;;;;;;;;5008517;28;20039;-69
2022/10/08 11:37:20;;;;;;;2.90;1.10;;;;;;;;;;5018571;28;20046;-68
2022/10/08 11:40:13;;;;;;;3.97;1.00;;;;;;;;;;5013432;28;20049;-67
2022/10/08 11:43:05;;;;;;;4.10;1.02;;;;;;;;;;5009336;28;20046;-65
2022/10/08 11:45:35;;;;;;;3.58;0.70;;;;;;;;;;5007879;28;20049;-64
2022/10/08 11:48:30;;;;;;;1.52;0.85;;;;;;;;;;5011185;28;20485;-70
2022/10/08 11:51:22;;;;;;;2.83;1.00;;;;;;;;;;5013845;28;20068;-65
2022/10/08 11:54:04;;;;;;;2.85;1.00;;;;;;;;;;5010457;28;20411;-70
2022/10/08 11:56:30;;;;;;;3.05;0.80;;;;;;;;;;5016585;28;20087;-67
2022/10/08 11:58:57;;;;;;;2.13;0.80;;;;;;;;;;5013686;28;20133;-68
2022/10/08 12:01:23;;;;;;;1.80;0.73;;;;;;;;;;5014033;28;20513;-68
2022/10/08 12:04:09;;;;;;;1.95;0.82;;;;;;;;;;5004919;28;20112;-69
2022/10/08 12:06:35;;;;;;;2.40;0.80;;;;;;;;;;5028293;28;20050;-66
2022/10/08 12:09:05;;;;;;;2.85;1.00;;;;;;;;;;5014287;28;20034;-66
2022/10/08 12:11:31;;;;;;;3.17;0.95;;;;;;;;;;5016802;28;20095;-66
2022/10/08 12:14:12;;;;;;;1.88;0.75;;;;;;;;;;5014222;28;20470;-70
2022/10/08 12:16:46;;;;;;;1.60;0.80;;;;;;;;;;5016481;28;20049;-67
2022/10/08 12:19:33;;;;;;;4.03;0.90;;;;;;;;;;5019778;28;20113;-65
2022/10/08 12:21:59;;;;;;;2.55;1.10;;;;;;;;;;5018480;28;20037;-67
2022/10/08 12:24:37;;;;;;;1.95;0.80;;;;;;;;;;5014239;28;20060;-67
2022/10/08 12:27:21;;;;;;;3.67;1.10;;;;;;;;;;5013962;28;20045;-66
2022/10/08 12:29:57;;;;;;;1.98;0.90;;;;;;;;;;5017214;28;20030;-66
2022/10/08 12:32:24;;;;;;;2.30;0.90;;;;;;;;;;5015370;28;20033;-65
2022/10/08 12:34:51;;;;;;;2.95;0.90;;;;;;;;;;5014120;28;20073;-66
2022/10/08 12:37:40;;;;;;;4.38;0.90;;;;;;;;;;4996338;28;20459;-67
2022/10/08 12:40:31;;;;;;;2.33;0.65;;;;;;;;;;5012152;28;20496;-63
2022/10/08 12:43:17;;;;;;;1.13;0.68;;;;;;;;;;5004115;28;20053;-67
2022/10/08 12:45:49;;;;;;;4.07;0.90;;;;;;;;;;5013180;28;20176;-66
2022/10/08 12:48:32;;;;;;;2.17;0.77;;;;;;;;;;5011493;28;20041;-66
2022/10/08 12:51:09;;;;;;;1.55;0.60;;;;;;;;;;5033757;28;20496;-63
2022/10/08 12:53:34;;;;;;;1.20;0.60;;;;;;;;;;5015616;28;20037;-63
2022/10/08 12:56:00;;;;;;;1.65;0.80;;;;;;;;;;5022323;28;20033;-63
2022/10/08 12:58:28;;;;;;;2.08;0.70;;;;;;;;;;5009996;28;20064;-62
2022/10/08 13:00:57;;;;;;;1.35;0.70;;;;;;;;;;5009179;28;20114;-63
2022/10/08 13:03:24;;;;;;;2.42;0.80;;;;;;;;;;5003124;28;20579;-62
2022/10/08 13:05:49;;;;;;;2.22;0.90;;;;;;;;;;5028789;28;20050;-66
2022/10/08 13:08:32;;;;;;;3.10;0.82;;;;;;;;;;5011958;28;20051;-67
2022/10/08 13:11:00;;;;;;;1.92;0.60;;;;;;;;;;5029120;28;20041;-67
2022/10/08 13:13:34;;;;;;;2.80;0.90;;;;;;;;;;5017111;28;20036;-65
2022/10/08 13:16:05;;;;;;;2.33;0.77;;;;;;;;;;5023243;28;20033;-67
2022/10/08 13:18:32;;;;;;;1.52;0.70;;;;;;;;;;5018776;28;20046;-67
2022/10/08 13:21:06;;;;;;;1.85;0.73;;;;;;;;;;5013912;28;20279;-67
2022/10/08 13:23:35;;;;;;;3.42;1.13;;;;;;;;;;5014965;28;20048;-67
2022/10/08 13:26:01;;;;;;;2.28;0.73;;;;;;;;;;5015671;28;20040;-67
2022/10/08 13:28:26;;;;;;;3.13;0.80;;;;;;;;;;5014744;28;20038;-66
2022/10/08 13:30:56;;;;;;;1.85;0.88;;;;;;;;;;5014225;28;20034;-67
2022/10/08 13:33:26;;;;;;;2.28;0.60;;;;;;;;;;5008930;28;20088;-67
2022/10/08 13:35:54;;;;;;;3.15;1.05;;;;;;;;;;5009217;28;20045;-67
2022/10/08 13:38:23;;;;;;;1.50;0.60;;;;;;;;;;5015717;28;20025;-67
2022/10/08 13:40:51;;;;;;;2.53;0.80;;;;;;;;;;5026932;28;20037;-67
2022/10/08 13:43:17;;;;;;;3.10;0.85;;;;;;;;;;5014476;28;20049;-67
2022/10/08 13:45:42;;;;;;;2.58;1.05;;;;;;;;;;5016530;28;20445;-67
2022/10/08 13:48:10;;;;;;;2.63;0.90;;;;;;;;;;5008604;28;20099;-67
2022/10/08 13:50:43;;;;;;;2.38;0.70;;;;;;;;;;5009873;28;20049;-67
2022/10/08 13:53:11;;;;;;;2.60;0.80;;;;;;;;;;5014293;28;20076;-66
2022/10/08 13:55:36;;;;;;;2.85;1.35;;;;;;;;;;5009798;28;20072;-66
2022/10/08 13:58:04;;;;;;;2.10;0.70;;;;;;;;;;5015546;28;20459;-66
2022/10/08 14:00:31;;;;;;;1.17;0.60;;;;;;;;;;5013218;28;20474;-66
2022/10/08 14:02:57;;;;;;;1.77;0.70;;;;;;;;;;5028386;28;20389;-67
2022/10/08 14:05:22;;;;;;;1.88;0.80;;;;;;;;;;5000937;28;20057;-66
2022/10/08 14:07:54;;;;;;;4.07;0.82;;;;;;;;;;5019336;28;20037;-67
2022/10/08 14:10:20;;;;;;;1.25;0.60;;;;;;;;;;5013666;28;20033;-65
2022/10/08 14:12:45;;;;;;;3.55;1.00;;;;;;;;;;5017373;28;20401;-65
2022/10/08 14:15:12;;;;;;;6.50;0.98;;;;;;;;;;5014259;28;20042;-65
2022/10/08 14:17:37;;;;;;;3.60;0.80;;;;;;;;;;5012381;28;20042;-70
2022/10/08 14:20:03;;;;;;;2.75;0.82;;;;;;;;;;5016975;28;20045;-67
2022/10/08 14:22:31;;;;;;;2.65;1.00;;;;;;;;;;5008429;28;20118;-68
2022/10/08 14:24:56;;;;;;;2.42;0.75;;;;;;;;;;5010498;28;20080;-62
2022/10/08 14:27:21;;;;;;;1.88;0.70;;;;;;;;;;5013624;28;20038;-69
2022/10/08 14:29:47;;;;;;;2.22;0.85;;;;;;;;;;5012959;28;20038;-67
2022/10/08 14:32:12;;;;;;;1.27;0.57;;;;;;;;;;5010615;28;20121;-64
2022/10/08 14:34:38;;;;;;;2.17;0.93;;;;;;;;;;5014793;28;20053;-65
2022/10/08 14:37:04;;;;;;;1.50;0.65;;;;;;;;;;5016472;28;20536;-69
2022/10/08 14:39:30;;;;;;;2.75;0.80;;;;;;;;;;5017164;28;20030;-67
2022/10/08 14:41:57;;;;;;;2.13;0.90;;;;;;;;;;5022971;28;20038;-68
2022/10/08 14:44:22;;;;;;;2.35;1.00;;;;;;;;;;5025597;28;20025;-68
2022/10/08 14:46:50;;;;;;;2.65;0.80;;;;;;;;;;5014345;28;20041;-68
2022/10/08 14:49:16;;;;;;;2.50;0.80;;;;;;;;;;5020100;28;20034;-68
2022/10/08 14:51:42;;;;;;;2.83;0.98;;;;;;;;;;5008180;28;20111;-70
2022/10/08 14:54:08;;;;;;;1.55;0.63;;;;;;;;;;5019288;28;20033;-68
2022/10/08 14:56:34;;;;;;;2.50;0.70;;;;;;;;;;5012839;28;20038;-68
2022/10/08 14:59:00;;;;;;;3.30;0.82;;;;;;;;;;5008860;28;20083;-69
2022/10/08 15:01:26;;;;;;;2.25;0.73;;;;;;;;;;5016219;28;20497;-70